Tiempo atmosférico en la estación meteorológica de Jávea/ Xàbia, Alacant/Alicante (15 m.)



Fecha
DESCASC
Temp. máxima en grados centígrados (hora)
DESCASC
Temp. mínima en grados centígrados (hora)
DESCASC
Temp. media en grados centígrados
DESCASC
Racha de viento máxima en m/sg (hora)
DESCASC
Velocidad máxima media en intervalos de 10 minutos(hora)
DESCASC
Precipitaciones diarias en mm
DESCASC
Precipitaciones de 00:00 a 06:00 en mm
DESCASC
Precipitaciones de 06:00 a 12:00 en mm
DESCASC
Precipitaciones de 12:00 a 18:00 en mm
DESCASC
Precipitaciones de 18:00 a 24:00 en mm
DESCASC
14-12-2019 21.8 (12:10) 8 (23:40) 14.9 18.06 (00:40) 9.72 (00:20) 0 0 0 0 0
13-12-2019 20.2 (16:20) 13.7 (00:50) 17 17.22 (11:30) 8.61 (23:59) 0 0 0 0 0
12-12-2019 17.5 (12:50) 11.4 (04:20) 14.4 13.33 (00:10) 7.5 (00:20) 0 0 0 0 0
11-12-2019 22.7 (13:50) 3.9 (00:00) 13.3 15 (15:50) 7.78 (22:50) 0 0 0 0 0
10-12-2019 19.3 (16:50) 5.2 (00:00) 12.2 11.67 (12:00) 5 (01:30) 0 0 0 0 0
09-12-2019 23.5 (13:40) 12.1 (00:00) 17.8 10.28 (01:50) 6.11 (02:00) 0 0 0 0 0
08-12-2019 19.5 (14:50) 5.7 (00:00) 12.6 4.72 (16:30) 2.78 (02:10) 0.2 0.2 0 0 0
07-12-2019 18.8 (13:10) 8 (00:00) 13.4 6.39 (05:20) 3.61 (03:50) 0 0 0 0 0
06-12-2019 17 (14:20) 10.7 (00:00) 13.8 11.11 (14:20) 6.94 (14:00) 0 0 0 0 0
05-12-2019 16.9 (16:00) 9.8 (00:00) 13.3 8.89 (19:30) 5 (19:50) 0 0 0 0 0
04-12-2019 14.7 (01:00) 10.4 (00:00) 12.5 18.61 (01:10) 10.56 (01:40) 30.2 23.6 6.2 0.4 0
03-12-2019 14.3 (23:59) 11.3 (00:00) 12.8 16.11 (18:20) 9.17 (20:50) 21.6 2 0.4 7.2 12
02-12-2019 14.9 (16:00) 10.2 (00:00) 12.5 12.22 (23:20) 7.22 (21:10) 81.4 0 63.2 2.4 15.8
01-12-2019 20 (12:30) 8.5 (00:00) 14.3 8.33 (13:10) 5 (13:40) 0 0 0 0 0
30-11-2019 22.5 (13:00) 9.5 (00:00) 16 10.56 (17:40) 5.56 (18:30) 0 0 0 0 0
29-11-2019 25.3 (14:50) 9.7 (00:00) 17.5 10 (12:00) 4.72 (13:30) 0 0 0 0 0
28-11-2019 23.3 (13:20) 10.9 (00:00) 17.1 8.89 (22:30) 4.72 (22:40) 0 0 0 0 0
27-11-2019 24.7 (14:40) 11.3 (00:00) 18 11.67 (17:00) 7.22 (17:00) 0 0 0 0 0
26-11-2019 23.7 (14:30) 10.2 (00:00) 17 11.39 (01:20) 6.67 (01:20) 0 0 0 0 0
25-11-2019 22.5 (13:30) 10.7 (00:00) 16.6 13.33 (11:40) 6.67 (15:20) 0 0 0 0 0
24-11-2019 19 (15:40) 11.6 (00:00) 15.3 19.44 (01:30) 10.83 (01:30) 0 0 0 0 0
23-11-2019 18.7 (14:10) 10.1 (00:00) 14.4 20.28 (12:10) 8.61 (11:00) 0 0 0 0 0
22-11-2019 15.7 (14:30) 8.4 (00:00) 12 14.72 (22:10) 7.22 (22:00) 2.6 0.6 0 0 2
21-11-2019 20 (13:00) 5.7 (00:00) 12.8 7.78 (18:10) 3.61 (20:50) 0.4 0 0 0 0.4
20-11-2019 18.3 (13:30) 4 (00:00) 11.1 8.61 (18:00) 4.17 (20:20) 1.4 0 0 0 1.4
19-11-2019 17.9 (14:40) 3.7 (00:00) 10.8 6.11 (13:40) 3.61 (12:00) 0 0 0 0 0
18-11-2019 15.7 (16:10) 9.1 (00:00) 12.4 11.11 (12:40) 6.39 (07:50) 4.6 3 0.8 0.4 0.4
17-11-2019 19.2 (13:30) 5.2 (00:00) 12.2 11.11 (02:50) 4.72 (09:50) 0.4 0 0 0 0.4
16-11-2019 15.9 (16:00) 6.2 (00:00) 11 11.39 (07:20) 5.83 (10:30) 0 0 0 0 0
15-11-2019 17.4 (15:00) 6 (00:00) 11.7 10.56 (13:00) 5.56 (10:50) 0 0 0 0 0

Gráficas

Temp. máximas Temp. mínimas Temp. medias Precipitaciones Rachas de viento máximas Velocidades máximas media en intervalos de 10 minutos

Datos horarios

Fecha y hora oficial Temperatura (ºC) Velocidad del viento (km/h) Dirección del viento Racha (km/h) Dirección de racha Precipitación (mm) Presión (hPa) Tendencia (hPa) Humedad (%)
2019-12-14 23:00:00 9.1 9 Oeste 16 Oeste 0 1016 0.6 88
2019-12-14 22:00:00 8.8 8 Sudoeste 12 Sudoeste 0 1015.8 0.8 89
2019-12-14 21:00:00 9.6 8 Sudoeste 12 Sudoeste 0 1015.8 1 87
2019-12-14 20:00:00 11.1 8 Sudoeste 12 Oeste 0 1015.4 0.7 86
2019-12-14 19:00:00 11.9 3 Noroeste 8 Sudoeste 0 1015 0.5 80
2019-12-14 18:00:00 14.8 3 Oeste 4 Este 0 1014.8 0.1 70
2019-12-14 17:00:00 16.8 3 Nordeste 11 Este 0 1014.7 -0.5 65
2019-12-14 16:00:00 17.7 7 Nordeste 12 Este 0 1014.5 -0.9 59
2019-12-14 15:00:00 18.9 6 Nordeste 14 Este 0 1014.7 -0.6 56
2019-12-14 14:00:00 20.2 8 Este 15 Sudeste 0 1015.2 0 48
2019-12-14 13:00:00 20.9 6 Sudeste 17 Sudeste 0 1015.4 0.7 40
2019-12-14 12:00:00 21.5 6 Oeste 14 Noroeste 0 1015.3 1.1 32
2019-12-14 11:00:00 19.1 6 Oeste 12 Oeste 0 1015.2 1.4 39
2019-12-14 10:00:00 15.1 2 Este 16 Oeste 0 1014.7 1.6 57
2019-12-14 09:00:00 13.1 3 Oeste 22 Sudoeste 0 1014.2 1 56
2019-12-14 08:00:00 12.3 9 Sudoeste 19 Sur 0 1013.8 1 59
2019-12-14 07:00:00 13.8 7 Oeste 19 Oeste 0 1013.1 -0.5 54
2019-12-14 06:00:00 14.5 8 Sudoeste 18 Sudoeste 0 1013.2 -0.1 52
2019-12-14 05:00:00 14.6 11 Oeste 21 Oeste 0 1012.8 0.4 54
2019-12-14 04:00:00 15.2 5 Sur 23 Oeste 0 1013.6 1.6 53
2019-12-14 03:00:00 14.8 4 Sudeste 12 Noroeste 0 1013.3 1.3 55
2019-12-14 02:00:00 17.5 8 Noroeste 49 Noroeste 0 1012.4 0.8 45
2019-12-14 01:00:00 18.1 21 Noroeste 65 Noroeste 0 1012 0.1 46
2019-12-14 00:00:00 18.4 31 Noroeste 55 Noroeste 0 1012 0 45
2019-12-13 23:00:00 18.6 28 Noroeste 53 Noroeste 0 1011.6 0 45
2019-12-13 22:00:00 18.9 26 Oeste 51 Oeste 0 1011.9 1.3 44
2019-12-13 21:00:00 18.6 19 Oeste 39 Oeste 0 1012 1.8 46
2019-12-13 20:00:00 18.8 15 Sudoeste 40 Oeste 0 1011.6 1.7 45
2019-12-13 19:00:00 19.8 17 Oeste 43 Oeste 0 1010.6 1.6 40
2019-12-13 18:00:00 19.6 18 Oeste 47 Oeste 0 1010.2 1.4 40
2019-12-13 17:00:00 20.1 22 Oeste 53 Oeste 0 1009.9 0.9 39
2019-12-13 16:00:00 20 21 Oeste 49 Noroeste 0 1009 0 39
2019-12-13 15:00:00 19.8 23 Oeste 49 Oeste 0 1008.8 -0.4 40
2019-12-13 14:00:00 19.8 21 Oeste 55 Oeste 0 1009 0.9 39
2019-12-13 13:00:00 19.7 22 Oeste 49 Noroeste 0 1009 1.2 41
2019-12-13 12:00:00 19.8 16 Oeste 62 Oeste 0 1009.2 1.9 41
2019-12-13 11:00:00 19.4 22 Oeste 50 Oeste 0 1008.1 1.1 44
2019-12-13 10:00:00 19 22 Oeste 47 Oeste 0 1007.8 0.5 46
2019-12-13 09:00:00 18.7 26 Oeste 49 Noroeste 0 1007.3 -0.2 49
2019-12-13 08:00:00 18.3 13 Oeste 49 Noroeste 0 1007 -0.7 50
2019-12-13 07:00:00 17.8 12 Oeste 44 Noroeste 0 1007.3 -1.1 52
2019-12-13 06:00:00 17.3 13 Oeste 49 Oeste 0 1007.5 -1.4 52
2019-12-13 05:00:00 16.7 9 Oeste 30 Oeste 0 1007.7 -1.5 53
2019-12-13 04:00:00 16.7 14 Oeste 30 Oeste 0 1008.4 -1.2 52
2019-12-13 03:00:00 16.2 13 Oeste 34 Oeste 0 1008.9 -0.6 52
2019-12-13 02:00:00 16.1 12 Oeste 32 Oeste 0 1009.2 -1.3 51
2019-12-13 01:00:00 14 4 Sudoeste 21 Sudoeste 0 1009.6 -1.7 56
2019-12-13 00:00:00 15.3 9 Oeste 34 Oeste 0 1009.5 -2.1 50
2019-12-12 23:00:00 15.6 13 Oeste 34 Oeste 0 1010.5 -1.6 47
2019-12-12 22:00:00 15.2 8 Oeste 34 Oeste 0 1011.3 -0.9 47
2019-12-12 21:00:00 15.1 16 Oeste 44 Noroeste 0 1011.6 -1.4 46
2019-12-12 20:00:00 14.5 10 Oeste 23 Oeste 0 1012.1 -1.4 46
2019-12-12 19:00:00 14 6 Sudoeste 26 Oeste 0 1012.2 -1.2 46
2019-12-12 18:00:00 14.4 12 Oeste 35 Noroeste 0 1013 -0.8 40
2019-12-12 17:00:00 15 14 Oeste 40 Oeste 0 1013.5 -1.9 37
2019-12-12 16:00:00 15.7 16 Noroeste 36 Oeste 0 1013.4 -3.6 32
2019-12-12 15:00:00 16 17 Oeste 41 Oeste 0 1013.8 -4 33
2019-12-12 14:00:00 15.9 19 Oeste 36 Oeste 0 1015.4 -3 34
2019-12-12 13:00:00 16.8 21 Oeste 40 Oeste 0 1017 -1.7 31
2019-12-12 12:00:00 16.7 21 Oeste 41 Oeste 0 1017.8 -0.6 31
2019-12-12 11:00:00 14.8 21 Noroeste 44 Noroeste 0 1018.4 0.1 36
2019-12-12 10:00:00 13.7 11 Oeste 37 Oeste 0 1018.7 0 41
2019-12-12 09:00:00 12.9 19 Oeste 39 Oeste 0 1018.4 -0.7 41
2019-12-12 08:00:00 12.9 17 Oeste 37 Oeste 0 1018.3 -0.8 39
2019-12-12 07:00:00 13 11 Oeste 38 Oeste 0 1018.7 -1 35
2019-12-12 06:00:00 13.3 15 Oeste 27 Sudoeste 0 1019.1 -1.2 34
2019-12-12 05:00:00 12.6 12 Oeste 26 Oeste 0 1019.1 -1.1 37
2019-12-12 04:00:00 12 9 Oeste 32 Noroeste 0 1019.7 -0.4 39
2019-12-12 03:00:00 12.4 14 Oeste 36 Oeste 0 1020.3 -0.3 38
2019-12-12 02:00:00 12.3 10 Oeste 35 Oeste 0 1020.2 -0.4 40
2019-12-12 01:00:00 13.3 17 Noroeste 48 Noroeste 0 1020.1 -0.3 36
2019-12-12 00:00:00 13.2 22 Noroeste 50 Noroeste 0 1020.6 1 36
2019-12-11 23:00:00 13.5 26 Noroeste 44 Noroeste 0 1020.6 2.1 38
2019-12-11 22:00:00 13.6 18 Noroeste 40 Noroeste 0 1020.4 3.1 41
2019-12-11 21:00:00 14.2 21 Noroeste 43 Oeste 0 1019.6 3.7 46
2019-12-11 20:00:00 15.1 23 Noroeste 47 Noroeste 0 1018.5 3.1 45
2019-12-11 19:00:00 16.3 26 Noroeste 48 Oeste 0 1017.3 2.4 41
2019-12-11 18:00:00 17.6 19 Oeste 53 Oeste 0 1015.9 0.6 36
2019-12-11 17:00:00 18 22 Oeste 47 Oeste 0 1015.4 0 32
2019-12-11 16:00:00 18.7 22 Oeste 54 Noroeste 0 1014.9 -1.5 32
2019-12-11 15:00:00 22.5 14 Oeste 28 Oeste 0 1015.3 -2.5 25
2019-12-11 14:00:00 21.4 5 Este 14 Oeste 0 1015.4 -2.8 30
2019-12-11 13:00:00 18 2 Sudeste 10 Oeste 0 1016.4 -2.1 40
2019-12-11 12:00:00 15.6 0 Calma 10 Nordeste 0 1017.8 -0.7 52
2019-12-11 11:00:00 11.3 7 Sudoeste 14 Oeste 0 1018.2 -0.4 63
2019-12-11 10:00:00 8.4 9 Oeste 19 Oeste 0 1018.5 -0.5 65
2019-12-11 09:00:00 6.5 13 Sudoeste 17 Oeste 0 1018.5 -0.8 68
2019-12-11 08:00:00 4.8 12 Sudoeste 15 Oeste 0 1018.6 -1.2 78
2019-12-11 07:00:00 4.6 10 Oeste 14 Oeste 0 1019 -1.4 86
2019-12-11 06:00:00 4.9 7 Oeste 15 Oeste 0 1019.3 -1.4 82
2019-12-11 05:00:00 5.4 9 Oeste 13 Oeste 0 1019.8 -1 85
2019-12-11 04:00:00 7.3 9 Oeste 15 Oeste 0 1020.4 -1 84
2019-12-11 03:00:00 5.9 7 Oeste 11 Oeste 0 1020.7 -1 91
2019-12-11 02:00:00 5.4 4 Noroeste 10 Sudoeste 0 1020.8 -0.8 90
2019-12-11 01:00:00 6 3 Oeste 9 Noroeste 0 1021.4 -0.3 88
2019-12-11 00:00:00 7.1 6 Oeste 11 Sudoeste 0 1021.7 -0.3 85
2019-12-10 23:00:00 7.1 3 Oeste 10 Oeste 0 1021.6 -0.6 86
2019-12-10 22:00:00 8.4 5 Sudoeste 12 Oeste 0 1021.7 -0.3 79
2019-12-10 21:00:00 9.4 0 Calma 9 Noroeste 0 1022 0.3 79
2019-12-10 20:00:00 10.7 2 Noroeste 10 Oeste 0 1022.2 0.4 75
2019-12-10 19:00:00 11.8 4 Norte 17 Sudoeste 0 1022 -0.4 71
2019-12-10 18:00:00 13.9 10 Sudoeste 20 Sudoeste 0 1021.7 -1.2 62
2019-12-10 17:00:00 18.2 8 Sudoeste 17 Sudoeste 0 1021.8 -1.7 46
2019-12-10 16:00:00 17.9 6 Este 17 Sudeste 0 1022.4 -1.9 43
2019-12-10 15:00:00 19 5 Sudeste 18 Este 0 1022.9 -1.3 36
2019-12-10 14:00:00 18.6 13 Norte 26 Norte 0 1023.5 -1.1 34
2019-12-10 13:00:00 18.2 15 Norte 31 Norte 0 1024.3 -0.2 33
2019-12-10 12:00:00 18.8 17 Noroeste 42 Noroeste 0 1024.2 0.5 24
2019-12-10 11:00:00 16.7 14 Noroeste 27 Noroeste 0 1024.6 0.6 28
2019-12-10 10:00:00 13.1 4 Nordeste 19 Noroeste 0 1024.5 1.3 39
2019-12-10 09:00:00 6.3 6 Sudoeste 15 Sudoeste 0 1023.7 0.2 64
2019-12-10 08:00:00 6 4 Sudoeste 17 Noroeste 0 1024 0.4 66
2019-12-10 07:00:00 5.6 10 Sudoeste 16 Noroeste 0 1023.2 -1.1 70
2019-12-10 06:00:00 6.2 3 Sudoeste 14 Noroeste 0 1023.5 -0.8 68
2019-12-10 05:00:00 7.9 11 Sudoeste 17 Sudoeste 0 1023.6 -0.9 62
2019-12-10 04:00:00 8.7 3 Noroeste 13 Oeste 0 1024.3 -0.6 59
2019-12-10 03:00:00 10 4 Sudeste 15 Oeste 0 1024.3 -0.7 55
2019-12-10 02:00:00 12.1 9 Oeste 29 Noroeste 0 1024.5 -0.3 46
2019-12-10 01:00:00 11.5 6 Oeste 19 Oeste 0 1024.9 -0.2 52
2019-12-10 00:00:00 15.2 9 Oeste 29 Noroeste 0 1025 0.6 35
2019-12-09 23:00:00 14.2 14 Noroeste 23 Oeste 0 1024.8 0.6 41
2019-12-09 22:00:00 14.6 8 Noroeste 25 Oeste 0 1025.1 1.6 43
2019-12-09 21:00:00 15.1 17 Noroeste 26 Noroeste 0 1024.4 1.7 40
2019-12-09 20:00:00 15.4 8 Noroeste 27 Noroeste 0 1024.2 1.9 40
2019-12-09 19:00:00 16.1 9 Noroeste 18 Noroeste 0 1023.5 1.5 38
2019-12-09 18:00:00 16.8 9 Norte 24 Noroeste 0 1022.7 1 40
2019-12-09 17:00:00 17.8 11 Norte 26 Noroeste 0 1022.3 0.1 35
2019-12-09 16:00:00 20 16 Norte 26 Norte 0 1022 -0.4 37
2019-12-09 15:00:00 21.4 15 Norte 29 Noroeste 0 1021.7 -1.7 29
2019-12-09 14:00:00 22.8 15 Oeste 23 Oeste 0 1022.2 -1.2 20
2019-12-09 13:00:00 22.6 12 Oeste 29 Oeste 0 1022.4 -0.7 20
2019-12-09 12:00:00 20.9 12 Oeste 22 Oeste 0 1023.4 0.8 25
2019-12-09 11:00:00 18.8 8 Sudoeste 26 Sudoeste 0 1023.4 1.5 31
2019-12-09 10:00:00 15 12 Sudoeste 21 Sudoeste 0 1023.1 2.2 48
2019-12-09 09:00:00 14.7 11 Oeste 28 Noroeste 0 1022.6 1.8 47
2019-12-09 08:00:00 13.7 9 Oeste 36 Noroeste 0 1021.9 1 54
2019-12-09 07:00:00 16.2 17 Noroeste 37 Noroeste 0 1020.9 0.7 42
2019-12-09 06:00:00 15.6 15 Noroeste 33 Oeste 0 1020.8 0.7 54
2019-12-09 05:00:00 15.4 12 Noroeste 25 Noroeste 0 1020.9 0.5 60
2019-12-09 04:00:00 15.4 6 Sudoeste 24 Oeste 0 1020.2 -0.1 60
2019-12-09 03:00:00 15.6 14 Sudoeste 33 Oeste 0 1020.1 -0.1 60
2019-12-09 02:00:00 16.9 22 Noroeste 37 Oeste 0 1020.4 0.3 52
2019-12-09 01:00:00 15.8 16 Noroeste 26 Oeste 0 1020.3 -0.1 55
2019-12-09 00:00:00 12.3 6 Noroeste 13 Noroeste 0 1020.2 -0.3 69
2019-12-08 23:00:00 10 3 Oeste 14 Oeste 0 1020.1 -0.5 80
2019-12-08 22:00:00 9.7 5 Oeste 12 Oeste 0 1020.4 0.1 87
2019-12-08 21:00:00 10.7 4 Oeste 12 Oeste 0 1020.5 0.5 85
2019-12-08 20:00:00 11.5 7 Oeste 11 Oeste 0 1020.6 0.5 83
2019-12-08 19:00:00 12.8 6 Sudoeste 11 Sudoeste 0 1020.3 0.1 81
2019-12-08 18:00:00 14.7 2 Sudoeste 9 Sudoeste 0 1020 -0.6 66
2019-12-08 17:00:00 17.6 6 Sudoeste 17 Sudoeste 0 1020.1 -1.2 53
2019-12-08 16:00:00 19.3 6 Sudeste 13 Sur 0 1020.2 -2 55
2019-12-08 15:00:00 19.3 5 Sudeste 12 Nordeste 0 1020.6 -2.6 57
2019-12-08 14:00:00 17.7 5 Nordeste 15 Este 0 1021.3 -2.1 64
2019-12-08 13:00:00 17.3 5 Este 9 Este 0 1022.2 -0.9 64
2019-12-08 12:00:00 17.1 3 Este 7 Sudeste 0 1023.2 0.6 59
2019-12-08 11:00:00 14.3 3 Oeste 8 Oeste 0 1023.4 1.2 73
2019-12-08 10:00:00 9.9 6 Sudoeste 14 Oeste 0 1023.1 1.1 91
2019-12-08 09:00:00 6.3 10 Sudoeste 14 Oeste 0 1022.6 0.7 94
2019-12-08 08:00:00 6.3 9 Oeste 13 Oeste 0 1022.2 0.1 94
2019-12-08 07:00:00 5.9 9 Oeste 13 Oeste 0 1022 -0.3 94
2019-12-08 06:00:00 6 9 Oeste 11 Oeste 0 1021.9 -0.6 94
2019-12-08 05:00:00 6.2 10 Sudoeste 12 Sudoeste 0 1022.1 -0.7 93
2019-12-08 04:00:00 6.6 9 Sudoeste 14 Oeste 0 1022.3 -1 94
2019-12-08 03:00:00 6.9 9 Sudoeste 14 Oeste 0.2 1022.5 -1 93
2019-12-08 02:00:00 7.2 9 Oeste 14 Oeste 0 1022.8 -0.3 95
2019-12-08 01:00:00 7.3 8 Sudoeste 12 Oeste 0 1023.3 0.7 94
2019-12-08 00:00:00 8 10 Sudoeste 14 Oeste 0 1023.5 1 93
2019-12-07 23:00:00 8.6 7 Sudoeste 10 Oeste 0 1023.1 0.6 94
2019-12-07 22:00:00 8.7 9 Oeste 12 Sudoeste 0 1022.6 0.6 93
2019-12-07 21:00:00 9 8 Sudoeste 10 Oeste 0 1022.5 0.7 93
2019-12-07 20:00:00 9.8 8 Sudoeste 10 Sudoeste 0 1022.5 0.9 91
2019-12-07 19:00:00 11.3 4 Sudoeste 6 Sudoeste 0 1022 0.8 84
2019-12-07 18:00:00 14.1 3 Este 9 Nordeste 0 1021.8 0.6 77
2019-12-07 17:00:00 16 5 Este 15 Nordeste 0 1021.6 -0.1 72
2019-12-07 16:00:00 16.6 9 Nordeste 17 Nordeste 0 1021.2 -1 60
2019-12-07 15:00:00 16.6 9 Nordeste 17 Nordeste 0 1021.2 -1.5 58
2019-12-07 14:00:00 18 8 Nordeste 13 Este 0 1021.7 -1.3 58
2019-12-07 13:00:00 18.4 4 Norte 15 Nordeste 0 1022.2 -0.2 56
2019-12-07 12:00:00 16.2 5 Nordeste 10 Nordeste 0 1022.7 0.6 70
2019-12-07 11:00:00 13.3 0 Calma 10 Sudoeste 0 1023 1 81
2019-12-07 10:00:00 11.5 4 Sudoeste 8 Oeste 0 1022.4 0.5 94
2019-12-07 09:00:00 8.7 4 Sudoeste 8 Sudoeste 0 1022.1 0.5 93
2019-12-07 08:00:00 10.1 5 Sudoeste 12 Oeste 0 1022 0.1 91
2019-12-07 07:00:00 10.9 5 Sudoeste 22 Noroeste 0 1021.9 -0.5 91
2019-12-07 06:00:00 12.4 7 Oeste 23 Norte 0 1021.6 -0.7 91
2019-12-07 05:00:00 12.5 9 Norte 21 Norte 0 1021.9 0 93
2019-12-07 04:00:00 12.1 12 Noroeste 22 Noroeste 0 1022.4 0.2 95
2019-12-07 03:00:00 9.8 5 Sudoeste 12 Oeste 0 1022.3 0.1 95
2019-12-07 02:00:00 9.9 4 Oeste 11 Noroeste 0 1021.9 -0.3 94
2019-12-07 01:00:00 10.8 4 Noroeste 12 Noroeste 0 1022.2 0 93
2019-12-07 00:00:00 12 6 Noroeste 12 Noroeste 0 1022.2 -0.1 94
2019-12-06 23:00:00 11.6 6 Oeste 8 Oeste 0 1022.2 0.1 92
2019-12-06 22:00:00 12.7 3 Norte 13 Norte 0 1022.2 0.6 87
2019-12-06 21:00:00 14.2 10 Norte 19 Norte 0 1022.3 1.2 87
2019-12-06 20:00:00 14 7 Norte 17 Norte 0 1022.1 1.1 86
2019-12-06 19:00:00 14.2 8 Norte 18 Noroeste 0 1021.6 0.8 84
2019-12-06 18:00:00 14.4 10 Norte 19 Norte 0 1021.1 0.2 82
2019-12-06 17:00:00 16.1 9 Noroeste 24 Norte 0 1021 -0.4 75
2019-12-06 16:00:00 16.2 14 Norte 32 Norte 0 1020.8 -1 73
2019-12-06 15:00:00 16.2 19 Noroeste 40 Norte 0 1020.9 -1.7 73
2019-12-06 14:00:00 16.6 25 Noroeste 39 Norte 0 1021.4 -1.2 73
2019-12-06 13:00:00 16.3 24 Noroeste 39 Norte 0 1021.8 -0.5 70
2019-12-06 12:00:00 16.5 13 Noroeste 33 Norte 0 1022.6 1 69
2019-12-06 11:00:00 14.6 19 Noroeste 31 Noroeste 0 1022.6 1.4 77
2019-12-06 10:00:00 13.8 13 Noroeste 29 Noroeste 0 1022.3 1.5 78
2019-12-06 09:00:00 12.7 9 Oeste 28 Noroeste 0 1021.6 1.1 81
2019-12-06 08:00:00 12.1 11 Noroeste 24 Noroeste 0 1021.2 0.8 82
2019-12-06 07:00:00 12.2 5 Noroeste 22 Norte 0 1020.8 0.3 82
2019-12-06 06:00:00 12.4 5 Sudoeste 23 Noroeste 0 1020.5 0.1 84
2019-12-06 05:00:00 12.7 3 Oeste 14 Norte 0 1020.4 0.2 84
2019-12-06 04:00:00 13.1 8 Norte 21 Norte 0 1020.5 0.1 84
2019-12-06 03:00:00 13.3 10 Norte 23 Norte 0 1020.4 -0.3 84
2019-12-06 02:00:00 13.3 11 Norte 21 Norte 0 1020.2 0 85
2019-12-06 01:00:00 13.6 8 Norte 18 Norte 0 1020.4 0.4 82
2019-12-06 00:00:00 13.7 6 Nordeste 21 Nordeste 0 1020.7 1.3 81
2019-12-05 23:00:00 13.8 12 Norte 23 Norte 0 1020.2 1.2 82
2019-12-05 22:00:00 14.1 13 Nordeste 26 Nordeste 0 1020 1.9 80
2019-12-05 21:00:00 14.3 16 Nordeste 28 Nordeste 0 1019.4 2 80
2019-12-05 20:00:00 14.2 17 Nordeste 32 Nordeste 0 1019 2.5 82
2019-12-05 19:00:00 14.4 14 Nordeste 26 Nordeste 0 1018.1 2.1 83
2019-12-05 18:00:00 14.1 8 Norte 26 Norte 0 1017.4 1.8 83
2019-12-05 17:00:00 15.5 15 Norte 28 Noroeste 0 1016.5 0.7 75
2019-12-05 16:00:00 16.9 12 Norte 23 Noroeste 0 1016 0 67
2019-12-05 15:00:00 15.8 13 Norte 26 Noroeste 0 1015.6 -0.4 72
2019-12-05 14:00:00 15.5 17 Noroeste 28 Noroeste 0 1015.8 0.2 73
2019-12-05 13:00:00 14.7 12 Norte 26 Noroeste 0 1016 1.1 77
2019-12-05 12:00:00 16.6 12 Noroeste 24 Norte 0 1016 1.9 68
2019-12-05 11:00:00 15.3 6 Oeste 11 Noroeste 0 1015.6 2.7 78
2019-12-05 10:00:00 12.4 8 Sudoeste 12 Sudoeste 0 1014.9 2.9 89
2019-12-05 09:00:00 10.9 5 Oeste 11 Oeste 0 1014.1 2.6 94
2019-12-05 08:00:00 10.1 7 Sudoeste 9 Sudoeste 0 1012.9 2.1 94
2019-12-05 07:00:00 10.4 8 Sudoeste 12 Oeste 0 1012 1.7 93
2019-12-05 06:00:00 10.2 6 Sudoeste 11 Oeste 0 1011.5 1.8 92
2019-12-05 05:00:00 11.1 4 Oeste 14 Norte 0 1010.8 1.6 89
2019-12-05 04:00:00 11.2 5 Este 9 Este 0 1010.3 1.7 94
2019-12-05 03:00:00 10.5 2 Noroeste 6 Sudoeste 0 1009.7 1.7 95
2019-12-05 02:00:00 10 0 Calma 5 Sudoeste 0 1009.2 1.6 94
2019-12-05 01:00:00 10.2 0 Calma 3 Norte 0 1008.6 1.5 93
2019-12-05 00:00:00 10.4 0 Calma 5 Sur 0 1008 1.6 92
2019-12-04 23:00:00 10.9 0 Calma 5 Sudeste 0 1007.6 1.7 88
2019-12-04 22:00:00 11.4 3 Oeste 15 Norte 0 1007.1 1.7 84
2019-12-04 21:00:00 11 3 Noroeste 10 Sudoeste 0 1006.4 1.7 86
2019-12-04 20:00:00 11.5 5 Oeste 24 Oeste 0 1005.9 2 84
2019-12-04 19:00:00 12 13 Oeste 32 Noroeste 0 1005.4 1.3 81
2019-12-04 18:00:00 11.7 19 Noroeste 41 Noroeste 0 1004.7 0.9 84
2019-12-04 17:00:00 13.1 17 Noroeste 42 Noroeste 0.2 1003.9 0.2 70
2019-12-04 16:00:00 13.3 13 Noroeste 28 Noroeste 0 1004.1 0.2 77
2019-12-04 15:00:00 12.8 20 Noroeste 40 Norte 0 1003.8 -0.3 83
2019-12-04 14:00:00 12.5 19 Noroeste 39 Norte 0.2 1003.7 -0.1 89
2019-12-04 13:00:00 13.4 21 Norte 41 Nordeste 0 1003.9 0.3 81
2019-12-04 12:00:00 13.3 19 Norte 46 Norte 0 1004.1 0.7 86
2019-12-04 11:00:00 13.3 23 Norte 52 Norte 0 1003.8 1 86
2019-12-04 10:00:00 12.3 22 Norte 46 Nordeste 4.4 1003.6 0.8 94
2019-12-04 09:00:00 12.5 20 Norte 40 Norte 0 1003.4 0.9 87
2019-12-04 08:00:00 12.3 23 Nordeste 43 Norte 0.8 1002.8 -0.3 90
2019-12-04 07:00:00 11.2 15 Norte 35 Norte 1 1002.8 -0.9 94
2019-12-04 06:00:00 11.2 20 Norte 38 Norte 2.6 1002.5 -2.2 95
2019-12-04 05:00:00 11.4 23 Norte 45 Nordeste 2.4 1003.1 -1.8 94
2019-12-04 04:00:00 11 17 Norte 29 Norte 4.8 1003.7 -2.6 95
2019-12-04 03:00:00 10.7 10 Norte 44 Norte 6.8 1004.7 -3.3 95
2019-12-04 02:00:00 12.8 24 Norte 67 Nordeste 6.8 1004.9 -3.8 94
2019-12-04 01:00:00 14.7 30 Norte 59 Norte 0.2 1006.3 -3.4 89
2019-12-04 00:00:00 14.3 28 Norte 54 Norte 0 1008 -2.4 91
2019-12-03 23:00:00 14 27 Nordeste 49 Nordeste 1.8 1008.7 -2.2 93
2019-12-03 22:00:00 12.4 28 Norte 55 Norte 3.2 1009.7 -1.6 95
2019-12-03 21:00:00 11.9 27 Norte 55 Norte 1.8 1010.4 -1.2 92
2019-12-03 20:00:00 11.9 28 Norte 51 Norte 2.8 1010.9 -0.8 91
2019-12-03 19:00:00 11.8 26 Norte 58 Norte 2.4 1011.3 -0.5 88
2019-12-03 18:00:00 11.6 28 Norte 51 Norte 2.2 1011.6 -0.5 88
2019-12-03 17:00:00 11.8 25 Norte 51 Nordeste 2.6 1011.7 -1.2 87
2019-12-03 16:00:00 12.3 32 Nordeste 57 Nordeste 0.4 1011.8 -1.5 78
2019-12-03 15:00:00 12.7 22 Nordeste 49 Nordeste 0.6 1012.1 -2.2 70
2019-12-03 14:00:00 12.3 29 Nordeste 50 Nordeste 1.4 1012.9 -2 75
2019-12-03 13:00:00 13.5 28 Nordeste 49 Nordeste 0 1013.3 -1.6 70
2019-12-03 12:00:00 12.9 24 Norte 53 Norte 0 1014.3 -0.4 83
2019-12-03 11:00:00 14.1 25 Nordeste 45 Nordeste 0 1014.9 0.8 67
2019-12-03 10:00:00 13.9 26 Nordeste 50 Nordeste 0 1014.9 1.1 67
2019-12-03 09:00:00 14 27 Nordeste 52 Nordeste 0 1014.7 1 62
2019-12-03 08:00:00 13.5 26 Nordeste 50 Nordeste 0.4 1014.1 0 75
2019-12-03 07:00:00 14.1 25 Nordeste 45 Nordeste 0 1013.8 -0.7 70
2019-12-03 06:00:00 14.1 27 Nordeste 42 Nordeste 0 1013.7 -1.1 71
2019-12-03 05:00:00 14.1 22 Nordeste 43 Nordeste 0 1014.1 -0.9 75
2019-12-03 04:00:00 13.8 18 Nordeste 42 Nordeste 0.6 1014.5 -1 79
2019-12-03 03:00:00 13 21 Nordeste 37 Nordeste 0.8 1014.8 -0.4 83
2019-12-03 02:00:00 13.7 21 Nordeste 35 Nordeste 0 1015 -0.1 78
2019-12-03 01:00:00 13.4 17 Nordeste 40 Nordeste 0.6 1015.5 0.6 83
2019-12-03 00:00:00 13.7 26 Nordeste 44 Nordeste 2 1015.2 0.7 80
2019-12-02 23:00:00 13.4 26 Nordeste 41 Nordeste 3.6 1015.1 1.1 85
2019-12-02 22:00:00 13.5 20 Nordeste 40 Nordeste 2.2 1014.9 1.7 90
2019-12-02 21:00:00 13.6 25 Nordeste 40 Nordeste 4.8 1014.5 1.7 92
2019-12-02 20:00:00 14 19 Nordeste 39 Nordeste 0.8 1014 1.6 91
2019-12-02 19:00:00 14.2 20 Nordeste 38 Nordeste 2.4 1013.2 1.1 91
2019-12-02 18:00:00 14.7 13 Este 30 Este 0.2 1012.8 0.8 88
2019-12-02 17:00:00 14.8 14 Nordeste 30 Nordeste 0 1012.4 0.3 85
2019-12-02 16:00:00 14.8 10 Este 28 Este 0 1012.1 -0.3 88
2019-12-02 15:00:00 14.2 4 Norte 19 Nordeste 0 1012 -0.6 90
2019-12-02 14:00:00 14.3 6 Sudoeste 13 Noroeste 2 1012.1 -0.2 92
2019-12-02 13:00:00 13.9 7 Norte 14 Norte 0.2 1012.4 0.7 92
2019-12-02 12:00:00 13.9 6 Sudoeste 12 Oeste 1.6 1012.6 1.4 95
2019-12-02 11:00:00 11.9 7 Oeste 21 Nordeste 5.4 1012.3 2.1 94
2019-12-02 10:00:00 11.4 8 Este 34 Este 52.2 1011.7 1.4 92
2019-12-02 09:00:00 12.8 6 Noroeste 24 Este 2.4 1011.2 1 91
2019-12-02 08:00:00 13.8 11 Este 31 Este 1.6 1010.2 0.2 95
2019-12-02 07:00:00 12.7 5 Nordeste 12 Nordeste 0 1010.3 0.1 92
2019-12-02 06:00:00 10.3 6 Sudoeste 10 Sudoeste 0 1010.2 -0.2 93
2019-12-02 05:00:00 10.3 8 Sudoeste 10 Sudoeste 0 1010 -0.7 91
2019-12-02 04:00:00 11.6 4 Oeste 10 Noroeste 0 1010.2 -0.7 85
2019-12-02 03:00:00 13.4 6 Norte 17 Norte 0 1010.4 -0.4 81
2019-12-02 02:00:00 12.7 4 Norte 14 Oeste 0 1010.7 0.1 83
2019-12-02 01:00:00 11.5 8 Sudoeste 12 Noroeste 0 1010.9 0.2 82
2019-12-02 00:00:00 11.4 6 Sudoeste 13 Sudoeste 0 1010.8 0.5 83
2019-12-01 23:00:00 11.6 6 Oeste 13 Sudoeste 0 1010.6 0.5 84
2019-12-01 22:00:00 11.4 6 Sudoeste 13 Oeste 0 1010.7 0.8 83
2019-12-01 21:00:00 10.9 8 Sudoeste 12 Sudoeste 0 1010.3 0.6 83
2019-12-01 20:00:00 10.7 8 Sudoeste 11 Sudoeste 0 1010.1 0.7 83
2019-12-01 19:00:00 12.1 4 Oeste 7 Oeste 0 1009.9 0.5 75
2019-12-01 18:00:00 15.6 3 Este 11 Este 0 1009.7 0.2 62
2019-12-01 17:00:00 17.7 6 Este 12 Este 0 1009.4 -0.4 55
2019-12-01 16:00:00 17.7 7 Norte 21 Noroeste 0 1009.4 -1.1 47
2019-12-01 15:00:00 17.9 9 Norte 28 Norte 0 1009.5 -1.9 50
2019-12-01 14:00:00 18.7 16 Norte 30 Norte 0 1009.8 -1.8 47
2019-12-01 13:00:00 19.4 15 Noroeste 27 Noroeste 0 1010.5 -1 49
2019-12-01 12:00:00 16.9 9 Noroeste 15 Norte 0 1011.4 0.2 60
2019-12-01 11:00:00 15.8 3 Sur 12 Noroeste 0 1011.6 0.5 74
2019-12-01 10:00:00 13.4 4 Sudoeste 12 Sudoeste 0 1011.5 0.6 82
2019-12-01 09:00:00 10.2 12 Sudoeste 15 Oeste 0 1011.2 0 87
2019-12-01 08:00:00 8.7 9 Sudoeste 16 Oeste 0 1011.1 -0.2 87
2019-12-01 07:00:00 10 12 Oeste 15 Oeste 0 1010.9 -0.9 90
2019-12-01 06:00:00 9.3 9 Sudoeste 16 Oeste 0 1011.2 -0.8 88
2019-12-01 05:00:00 9.5 8 Oeste 13 Oeste 0 1011.3 -1 89
2019-12-01 04:00:00 10.6 6 Oeste 15 Oeste 0 1011.8 -1.2 90
2019-12-01 03:00:00 10 5 Oeste 10 Sudoeste 0 1012 -1.4 92
2019-12-01 02:00:00 10.4 3 Oeste 11 Oeste 0 1012.3 -1.3 90
2019-12-01 01:00:00 12.1 6 Oeste 11 Oeste 0 1013 -0.9 88
2019-12-01 00:00:00 13 5 Oeste 13 Oeste 0 1013.4 -0.8 87
2019-11-30 23:00:00 13.4 6 Oeste 15 Oeste 0 1013.6 -0.4 83
2019-11-30 22:00:00 14.8 6 Oeste 18 Oeste 0 1013.9 -0.2 82
2019-11-30 21:00:00 15.5 10 Sudoeste 26 Sudoeste 0 1014.2 0.3 77
2019-11-30 20:00:00 16 12 Sudoeste 24 Sudoeste 0 1014 0 74
2019-11-30 19:00:00 16.1 12 Sudoeste 36 Sudoeste 0 1014.1 -0.5 80
2019-11-30 18:00:00 16.9 18 Sudoeste 38 Sudoeste 0 1013.9 -1.6 73
2019-11-30 17:00:00 19.5 17 Sudoeste 31 Sur 0 1014 -2.6 59
2019-11-30 16:00:00 21.2 14 Sudoeste 31 Sur 0 1014.6 -3 50
2019-11-30 15:00:00 21.6 13 Sudoeste 27 Sudoeste 0 1015.5 -3.5 47
2019-11-30 14:00:00 22.1 11 Sudoeste 23 Sur 0 1016.6 -2.8 45
2019-11-30 13:00:00 22.5 11 Sudoeste 24 Sudoeste 0 1017.6 -1.6 45
2019-11-30 12:00:00 21.8 10 Sudoeste 20 Sudoeste 0 1019 -0.4 47
2019-11-30 11:00:00 20.1 5 Oeste 8 Oeste 0 1019.4 0.1 52
2019-11-30 10:00:00 15.4 7 Oeste 12 Sudoeste 0 1019.2 0.3 72
2019-11-30 09:00:00 10.6 10 Sudoeste 15 Sudoeste 0 1019.4 0.5 87
2019-11-30 08:00:00 10.4 11 Sudoeste 14 Sudoeste 0 1019.3 0 87
2019-11-30 07:00:00 9.6 9 Sudoeste 11 Sudoeste 0 1018.9 -0.5 88
2019-11-30 06:00:00 11.1 10 Oeste 14 Oeste 0 1018.9 -0.5 88
2019-11-30 05:00:00 10.8 11 Oeste 14 Oeste 0 1019.3 0 87
2019-11-30 04:00:00 10 8 Sudoeste 14 Sudoeste 0 1019.4 -0.2 88
2019-11-30 03:00:00 10.2 10 Sudoeste 14 Oeste 0 1019.4 0 86
2019-11-30 02:00:00 10.8 10 Sudoeste 14 Oeste 0 1019.3 -0.1 85
2019-11-30 01:00:00 11.2 9 Oeste 12 Oeste 0 1019.6 0.2 87
2019-11-30 00:00:00 10.8 7 Oeste 10 Oeste 0 1019.4 0.2 88
2019-11-29 23:00:00 10.6 6 Oeste 10 Sudoeste 0 1019.4 0.5 86
2019-11-29 22:00:00 11.1 4 Oeste 9 Oeste 0 1019.4 0.7 85
2019-11-29 21:00:00 11.9 3 Sudoeste 8 Sudoeste 0 1019.2 1.3 81
2019-11-29 20:00:00 13.3 4 Noroeste 8 Oeste 0 1018.9 1.5 77
2019-11-29 19:00:00 15 4 Oeste 11 Sudoeste 0 1018.7 1.5 70
2019-11-29 18:00:00 17.4 3 Este 8 Nordeste 0 1017.9 0.9 60
2019-11-29 17:00:00 20.5 5 Norte 12 Nordeste 0 1017.4 0.1 52
2019-11-29 16:00:00 21.7 5 Este 18 Nordeste 0 1017.2 -0.3 47
2019-11-29 15:00:00 24.5 7 Nordeste 27 Noroeste 0 1017 -0.9 35
2019-11-29 14:00:00 24.9 12 Noroeste 30 Oeste 0 1017.3 -0.2 36
2019-11-29 13:00:00 23.3 10 Oeste 32 Oeste 0 1017.5 0.6 40
2019-11-29 12:00:00 22.9 15 Oeste 36 Oeste 0 1017.9 1.5 39
2019-11-29 11:00:00 20.4 10 Oeste 20 Sudoeste 0 1017.5 1.6 49
2019-11-29 10:00:00 17.6 10 Oeste 18 Oeste 0 1016.9 1.7 56
2019-11-29 09:00:00 13.4 3 Oeste 10 Sudoeste 0 1016.4 1.3 71
2019-11-29 08:00:00 10.6 3 Noroeste 9 Oeste 0 1015.9 0.9 78
2019-11-29 07:00:00 12 4 Oeste 14 Oeste 0 1015.2 -0.3 71
2019-11-29 06:00:00 10.1 6 Oeste 11 Sudoeste 0 1015.1 -0.2 77
2019-11-29 05:00:00 9.7 4 Noroeste 10 Oeste 0 1015 -0.2 76
2019-11-29 04:00:00 10.3 6 Sur 15 Sudoeste 0 1015.5 -0.2 75
2019-11-29 03:00:00 11.9 8 Oeste 15 Sudoeste 0 1015.3 -0.8 66
2019-11-29 02:00:00 13 4 Noroeste 14 Sudoeste 0 1015.2 -1.1 61
2019-11-29 01:00:00 15.4 10 Sudoeste 22 Sudoeste 0 1015.7 -0.5 50
2019-11-29 00:00:00 14.2 7 Oeste 23 Sudoeste 0 1016.1 0.3 57
2019-11-28 23:00:00 15.3 12 Oeste 32 Oeste 0 1016.3 0.8 54
2019-11-28 22:00:00 13 14 Oeste 27 Noroeste 0 1016.2 1 71
2019-11-28 21:00:00 11.5 3 Noroeste 12 Sudoeste 0 1015.8 1 81
2019-11-28 20:00:00 12.8 5 Oeste 12 Oeste 0 1015.5 1 80
2019-11-28 19:00:00 13.7 5 Norte 8 Norte 0 1015.2 0.7 78
2019-11-28 18:00:00 16.2 3 Este 9 Nordeste 0 1014.8 0.3 68
2019-11-28 17:00:00 18.1 5 Nordeste 10 Sudeste 0 1014.5 -0.4 57
2019-11-28 16:00:00 20.8 6 Este 20 Sudeste 0 1014.5 -0.9 43
2019-11-28 15:00:00 22.1 6 Sudeste 19 Sur 0 1014.5 -1.4 33
2019-11-28 14:00:00 21.6 7 Este 22 Sudeste 0 1014.9 -0.9 41
2019-11-28 13:00:00 22.6 8 Oeste 15 Oeste 0 1015.4 -0.2 33
2019-11-28 12:00:00 21.2 8 Oeste 17 Oeste 0 1015.9 1 37
2019-11-28 11:00:00 19.7 11 Oeste 30 Oeste 0 1015.8 1.7 41
2019-11-28 10:00:00 17.4 11 Oeste 26 Sudoeste 0 1015.6 2 48
2019-11-28 09:00:00 14.8 6 Sur 21 Oeste 0 1014.9 1.9 56
2019-11-28 08:00:00 14 14 Oeste 23 Oeste 0 1014.1 1.2 56
2019-11-28 07:00:00 15.4 8 Oeste 31 Oeste 0 1013.6 1.2 49
2019-11-28 06:00:00 15.9 13 Oeste 26 Oeste 0 1013 0.4 45
2019-11-28 05:00:00 15.7 15 Noroeste 26 Oeste 0 1012.9 0.5 45
2019-11-28 04:00:00 14.5 6 Oeste 18 Oeste 0 1012.4 -0.2 48
2019-11-28 03:00:00 16.1 13 Noroeste 30 Oeste 0 1012.6 0.2 44
2019-11-28 02:00:00 16.2 16 Oeste 31 Oeste 0 1012.4 0.1 44
2019-11-28 01:00:00 15.4 2 Este 27 Oeste 0 1012.6 0.7 50
2019-11-28 00:00:00 15.5 6 Oeste 21 Oeste 0 1012.4 0.6 49
2019-11-27 23:00:00 15.3 6 Oeste 26 Noroeste 0 1012.3 0.9 49
2019-11-27 22:00:00 13.1 9 Sur 15 Sudeste 0 1011.9 1 57
2019-11-27 21:00:00 13.9 3 Sur 13 Noroeste 0 1011.8 1.9 52
2019-11-27 20:00:00 16.5 10 Oeste 19 Oeste 0 1011.4 2.5 41
2019-11-27 19:00:00 18.1 16 Oeste 37 Noroeste 0 1010.9 2.2 38
2019-11-27 18:00:00 19.3 13 Noroeste 34 Noroeste 0 1009.9 1.4 33
2019-11-27 17:00:00 21.5 26 Oeste 42 Noroeste 0 1008.9 -0.1 28
2019-11-27 16:00:00 23.1 24 Noroeste 41 Oeste 0 1008.7 -1.1 25
2019-11-27 15:00:00 24 20 Noroeste 36 Noroeste 0 1008.5 -2.1 28
2019-11-27 14:00:00 24.1 19 Noroeste 36 Oeste 0 1009 -2.1 31
2019-11-27 06:00:00 13.2 6 Sudoeste 15 Oeste 0 1008 0.1 80
2019-11-27 05:00:00 12.3 9 Sudoeste 18 Oeste 0 1008 0 88
2019-11-27 04:00:00 11.8 5 Sudoeste 9 Sudoeste 0 1008 -0.5 89
2019-11-27 03:00:00 12.7 4 Noroeste 11 Oeste 0 1007.9 -0.9 87
2019-11-27 02:00:00 13.7 7 Sudoeste 13 Sudoeste 0 1008 -1.1 87
2019-11-27 01:00:00 13.2 7 Sudoeste 15 Sudoeste 0 1008.5 -0.7 90
2019-11-27 00:00:00 13.9 6 Oeste 14 Oeste 0 1008.8 -0.7 89
2019-11-26 23:00:00 13.7 3 Noroeste 9 Oeste 0 1009.1 -0.5 89
2019-11-26 22:00:00 14 5 Oeste 12 Noroeste 0 1009.2 -0.7 89
2019-11-26 21:00:00 14.9 7 Oeste 14 Oeste 0 1009.5 0.2 87
2019-11-26 20:00:00 15.1 6 Oeste 13 Oeste 0 1009.6 0.3 87
2019-11-26 19:00:00 16 8 Sudoeste 17 Sudoeste 0 1009.9 0 83
2019-11-26 18:00:00 17.1 13 Sudoeste 26 Sudoeste 0 1009.3 -0.9 75
2019-11-26 17:00:00 20.1 11 Sudoeste 27 Sur 0 1009.3 -1.4 58
2019-11-26 16:00:00 22.7 9 Sur 19 Sur 0 1009.9 -1.4 44
2019-11-26 15:00:00 23.2 10 Sur 17 Sudoeste 0 1010.2 -2.2 34
2019-11-26 14:00:00 23.1 9 Sur 17 Sur 0 1010.7 -2 35
2019-11-26 13:00:00 22.6 10 Sur 20 Sur 0 1011.3 -1.1 39
2019-11-26 12:00:00 21.8 7 Sur 18 Oeste 0 1012.4 0 42
2019-11-26 11:00:00 19.3 6 Sudoeste 13 Sudoeste 0 1012.7 0.4 53
2019-11-26 10:00:00 14.5 5 Sudoeste 15 Sudoeste 0 1012.4 0.1 71
2019-11-26 09:00:00 12.2 11 Sudoeste 17 Oeste 0 1012.4 0 77
2019-11-26 08:00:00 11.3 8 Sudoeste 16 Sudoeste 0 1012.3 -0.3 82
2019-11-26 07:00:00 11 2 Oeste 12 Oeste 0 1012.3 -0.4 82
2019-11-26 06:00:00 11.7 8 Sudoeste 13 Oeste 0 1012.4 -0.3 80
2019-11-26 05:00:00 13.9 7 Oeste 15 Oeste 0 1012.6 -0.4 72
2019-11-26 04:00:00 14.1 9 Sudoeste 14 Oeste 0 1012.7 -0.8 71
2019-11-26 03:00:00 17 9 Oeste 29 Noroeste 0 1012.7 -1 59
2019-11-26 02:00:00 18.2 12 Oeste 41 Oeste 0 1013 -0.4 55
2019-11-26 01:00:00 18.4 18 Noroeste 33 Oeste 0 1013.5 0.2 54
2019-11-26 00:00:00 16 7 Oeste 23 Oeste 0 1013.7 0.7 62
2019-11-25 23:00:00 18 13 Oeste 30 Noroeste 0 1013.4 0.9 52
2019-11-25 22:00:00 17.4 10 Oeste 18 Oeste 0 1013.3 1.1 57
2019-11-25 21:00:00 18.4 10 Oeste 26 Oeste 0 1013 1.2 54
2019-11-25 20:00:00 19.2 14 Oeste 38 Noroeste 0 1012.5 1 48
2019-11-25 19:00:00 19.4 21 Noroeste 36 Noroeste 0 1012.2 1 46
2019-11-25 18:00:00 19.1 13 Oeste 33 Oeste 0 1011.8 0.8 50
2019-11-25 17:00:00 19.9 15 Oeste 40 Noroeste 0 1011.5 0.2 48
2019-11-25 16:00:00 21.6 17 Oeste 42 Oeste 0 1011.2 -0.4 44
2019-11-25 15:00:00 22 20 Oeste 41 Oeste 0 1011 -1.2 42
2019-11-25 14:00:00 22.2 15 Oeste 42 Oeste 0 1011.3 -1.5 41
2019-11-25 13:00:00 22.3 18 Oeste 42 Oeste 0 1011.6 -0.6 40
2019-11-25 12:00:00 21.1 21 Noroeste 48 Oeste 0 1012.2 0 45
2019-11-25 11:00:00 19.6 13 Oeste 26 Oeste 0 1012.8 0.6 49
2019-11-25 10:00:00 16.8 0 Calma 7 Este 0 1012.2 0.3 58
2019-11-25 09:00:00 11.4 2 Nordeste 9 Norte 0 1012.2 0.2 74
2019-11-25 08:00:00 11.5 5 Sudoeste 11 Sudoeste 0 1012.2 0.6 70
2019-11-25 07:00:00 11.2 5 Sur 10 Oeste 0 1011.9 0.1 70
2019-11-25 06:00:00 11.5 3 Noroeste 13 Sudoeste 0 1012 0.1 65
2019-11-25 05:00:00 12.5 7 Sudoeste 16 Sudoeste 0 1011.6 -0.5 58
2019-11-25 04:00:00 13.4 6 Oeste 32 Noroeste 0 1011.8 -0.4 54
2019-11-25 03:00:00 11 6 Sudoeste 13 Sur 0 1011.9 -0.1 60
2019-11-25 02:00:00 12 8 Sudoeste 18 Oeste 0 1012.1 0.4 54
2019-11-25 01:00:00 12.6 10 Sudoeste 35 Oeste 0 1012.2 0.8 49
2019-11-25 00:00:00 14 19 Oeste 44 Oeste 0 1012 0 43
2019-11-24 23:00:00 14 21 Oeste 39 Noroeste 0 1011.7 -0.4 40
2019-11-24 22:00:00 14.7 20 Oeste 45 Oeste 0 1011.4 -0.1 34
2019-11-24 21:00:00 13.6 16 Oeste 28 Oeste 0 1012 1.2 39
2019-11-24 20:00:00 13.1 12 Oeste 25 Oeste 0 1012.1 1.6 44
2019-11-24 19:00:00 11.6 4 Noroeste 11 Oeste 0 1011.5 1.5 54
2019-11-24 18:00:00 14.6 3 Sudoeste 21 Oeste 0 1010.8 0.7 44
2019-11-24 17:00:00 18.5 12 Sudoeste 38 Oeste 0 1010.5 0.8 32
2019-11-24 16:00:00 18.7 17 Oeste 36 Oeste 0 1010 0 29
2019-11-24 15:00:00 18.6 14 Oeste 38 Noroeste 0 1010.1 -1 31
2019-11-24 14:00:00 17.2 16 Oeste 33 Noroeste 0 1009.7 -1.1 32
2019-11-24 13:00:00 17.1 20 Oeste 42 Noroeste 0 1010 -0.3 32
2019-11-24 12:00:00 18.2 23 Noroeste 42 Noroeste 0 1011.1 1.2 30
2019-11-24 11:00:00 17 21 Oeste 43 Oeste 0 1010.8 1.7 31
2019-11-24 10:00:00 15.5 27 Noroeste 45 Noroeste 0 1010.3 2.7 34
2019-11-24 09:00:00 13.9 20 Oeste 42 Noroeste 0 1009.9 2.7 38
2019-11-24 08:00:00 13 17 Oeste 48 Oeste 0 1009.1 2.4 41
2019-11-24 07:00:00 13.9 31 Oeste 58 Noroeste 0 1007.6 1.1 37
2019-11-24 06:00:00 14.1 30 Oeste 65 Noroeste 0 1007.2 0.8 36
2019-11-24 05:00:00 14.1 28 Noroeste 55 Noroeste 0 1006.7 0.7 36
2019-11-24 04:00:00 14.8 31 Noroeste 55 Oeste 0 1006.5 0.8 34
2019-11-24 03:00:00 15 31 Noroeste 63 Noroeste 0 1006.4 1 33
2019-11-24 02:00:00 15.4 39 Noroeste 70 Noroeste 0 1006 1.1 33
2019-11-24 01:00:00 15.2 34 Noroeste 63 Noroeste 0 1005.7 1.3 34
2019-11-24 00:00:00 15.2 30 Noroeste 58 Oeste 0 1005.4 1.2 35
2019-11-23 23:00:00 15.3 23 Oeste 57 Noroeste 0 1004.9 1.4 34
2019-11-23 22:00:00 15.3 26 Oeste 58 Noroeste 0 1004.4 1.9 35
2019-11-23 21:00:00 15.3 22 Oeste 53 Noroeste 0 1004.2 3 36
2019-11-23 20:00:00 15.5 26 Oeste 52 Oeste 0 1003.5 3.6 35
2019-11-23 19:00:00 15.3 20 Oeste 47 Oeste 0 1002.5 3.7 36
2019-11-23 18:00:00 15.6 17 Oeste 44 Noroeste 0 1001.2 3.4 34
2019-11-23 17:00:00 15.6 23 Oeste 48 Oeste 0 999.9 2.2 34
2019-11-23 16:00:00 15.8 17 Oeste 50 Noroeste 0 998.8 1.8 37
2019-11-23 15:00:00 18.5 26 Oeste 51 Oeste 0 997.8 1 33
2019-11-23 14:00:00 18.6 24 Oeste 53 Oeste 0 997.7 1.8 32
2019-11-23 13:00:00 17.7 19 Noroeste 73 Oeste 0 997 1.7 35
2019-11-23 12:00:00 16.7 31 Noroeste 64 Noroeste 0 996.8 2 39
2019-11-23 11:00:00 15.8 31 Oeste 64 Noroeste 0 995.9 1.9 42
2019-11-23 10:00:00 15.4 22 Oeste 45 Oeste 0 995.3 1.6 45
2019-11-23 09:00:00 12.2 6 Sudoeste 18 Oeste 0 994.8 1.1 61
2019-11-23 08:00:00 13.2 12 Oeste 31 Noroeste 0 994 1.2 55
2019-11-23 07:00:00 13.6 9 Oeste 30 Oeste 0 993.7 0.6 54
2019-11-23 06:00:00 14.1 11 Oeste 27 Oeste 0 993.7 0.5 58
2019-11-23 05:00:00 10.5 10 Sudoeste 14 Sudoeste 0 992.8 -0.5 77
2019-11-23 04:00:00 12.9 8 Oeste 18 Oeste 0 993.1 -0.4 67
2019-11-23 03:00:00 10.3 7 Sudoeste 12 Sudoeste 0 993.2 -0.1 89
2019-11-23 02:00:00 12 3 Sudoeste 12 Oeste 0 993.3 -0.5 85
2019-11-23 01:00:00 14.9 9 Sudoeste 30 Noroeste 0 993.5 -0.9 79
2019-11-23 00:00:00 15 11 Noroeste 41 Sudoeste 0 993.3 -2.5 83
2019-11-22 23:00:00 15 24 Sudoeste 53 Sudoeste 0.2 993.8 -2.5 87
2019-11-22 22:00:00 15 26 Sur 50 Sur 0.6 994.4 -2.3 88
2019-11-22 21:00:00 14.9 20 Sudoeste 42 Sudoeste 0.6 995.8 -1.1 88
2019-11-22 20:00:00 14.9 13 Sudoeste 44 Sur 0.2 996.3 -1.7 88
2019-11-22 19:00:00 15.2 22 Sudoeste 46 Sudoeste 0.4 996.7 -2.2 82
2019-11-22 18:00:00 15.3 20 Sur 41 Sudoeste 0 996.9 -2.4 82
2019-11-22 17:00:00 15.5 19 Sudoeste 41 Sudoeste 0 998 -2.4 79
2019-11-22 16:00:00 15.5 19 Sudoeste 39 Sudoeste 0 998.9 -3.2 78
2019-11-22 15:00:00 15.4 18 Sudoeste 40 Sudoeste 0 999.3 -4.3 75
2019-11-22 14:00:00 15.5 18 Sur 39 Sudoeste 0 1000.4 -4.2 71
2019-11-22 13:00:00 15.3 15 Sudoeste 35 Sudoeste 0 1002.1 -2.5 69
2019-11-22 12:00:00 14.8 8 Sudoeste 22 Sudoeste 0 1003.6 -1.5 69
2019-11-22 11:00:00 14.8 8 Sudoeste 18 Sudoeste 0 1004.6 -0.3 75
2019-11-22 10:00:00 10.8 4 Oeste 10 Sudoeste 0 1004.6 -0.4 91
2019-11-22 09:00:00 9.4 7 Sudoeste 13 Noroeste 0 1005.1 -0.1 92
2019-11-22 08:00:00 8.5 6 Sudoeste 11 Sudoeste 0 1004.9 -0.4 92
2019-11-22 07:00:00 8.7 7 Sudoeste 14 Oeste 0 1005 -0.7 91
2019-11-22 06:00:00 9 8 Sudoeste 13 Oeste 0 1005.2 -1.2 91
2019-11-22 05:00:00 9 9 Sudoeste 13 Sudoeste 0 1005.3 -1.2 91
2019-11-22 04:00:00 9.7 8 Sudoeste 10 Sudoeste 0 1005.7 -1.3 90
2019-11-22 03:00:00 11.3 6 Oeste 12 Sudoeste 0 1006.4 -0.7 89
2019-11-22 02:00:00 11.8 6 Oeste 9 Noroeste 0.2 1006.5 -1 88
2019-11-22 01:00:00 12 5 Sudoeste 17 Sudoeste 0.4 1007 -0.7 86
2019-11-22 00:00:00 12.9 6 Sudoeste 17 Sudoeste 0.2 1007.1 -0.6 75
2019-11-21 23:00:00 13.8 9 Sudoeste 22 Sudoeste 0.2 1007.5 -0.3 69
2019-11-21 22:00:00 13.9 8 Sudoeste 16 Sudoeste 0 1007.7 0.1 67
2019-11-21 21:00:00 14.3 11 Sudoeste 23 Sudoeste 0 1007.7 0.2 66
2019-11-21 20:00:00 14.1 9 Sudoeste 17 Sudoeste 0 1007.8 0.8 67
2019-11-21 19:00:00 13.9 8 Oeste 28 Sudoeste 0 1007.6 0.5 69
2019-11-21 18:00:00 14.5 13 Sudoeste 25 Sudoeste 0 1007.5 -0.1 65
2019-11-21 17:00:00 16.1 7 Oeste 23 Sudoeste 0 1007 -1 60
2019-11-21 16:00:00 15.9 10 Sudoeste 27 Sur 0 1007.1 -1.2 60
2019-11-21 15:00:00 16.7 10 Sudoeste 24 Sur 0 1007.6 -1.6 56
2019-11-21 14:00:00 17.5 5 Sudeste 14 Nordeste 0 1008 -1.4 50
2019-11-21 13:00:00 19.8 3 Este 13 Sudoeste 0 1008.3 -0.9 40
2019-11-21 12:00:00 17.9 4 Sudoeste 11 Sudoeste 0 1009.2 0.4 48
2019-11-21 11:00:00 15.7 3 Sudoeste 10 Sur 0 1009.4 1.1 61
2019-11-21 10:00:00 11.1 8 Sudoeste 12 Oeste 0 1009.2 1.2 87
2019-11-21 09:00:00 7.7 7 Oeste 15 Oeste 0 1008.8 1.1 92
2019-11-21 08:00:00 -- -- -- -- -- -- -- -- --
2019-11-21 07:00:00 -- -- -- -- -- -- -- -- --
2019-11-21 06:00:00 -- -- -- -- -- -- -- -- --
2019-11-21 05:00:00 -- -- -- -- -- -- -- -- --
2019-11-21 04:00:00 -- -- -- -- -- -- -- -- --
2019-11-21 03:00:00 -- -- -- -- -- -- -- -- --
2019-11-21 02:00:00 -- -- -- -- -- -- -- -- --
2019-11-21 01:00:00 -- -- -- -- -- -- -- -- --
2019-11-21 00:00:00 -- -- -- -- -- -- -- -- --
2019-11-20 23:00:00 -- -- -- -- -- -- -- -- --
2019-11-20 22:00:00 -- -- -- -- -- -- -- -- --
2019-11-20 21:00:00 -- -- -- -- -- -- -- -- --
2019-11-20 20:00:00 -- -- -- -- -- -- -- -- --
2019-11-20 19:00:00 13.2 9 Sudoeste 25 Sur 0 1008.6 -0.2 67
2019-11-20 18:00:00 14.1 10 Sudoeste 31 Sudoeste 0 1008.3 -1 63
2019-11-20 17:00:00 15 9 Sur 23 Sur 0 1008.5 -1.5 57
2019-11-20 16:00:00 16.1 6 Sur 18 Sur 0 1008.8 -1.8 47
2019-11-20 15:00:00 17.4 8 Sudeste 19 Este 0 1009.3 -2.3 39
2019-11-20 14:00:00 17.5 7 Este 17 Sudeste 0 1010 -2 38
2019-11-20 13:00:00 17.2 8 Nordeste 16 Nordeste 0 1010.6 -1.6 36
2019-11-20 12:00:00 17 3 Sudeste 9 Sudeste 0 1011.6 -0.5 40
2019-11-20 11:00:00 15.1 5 Oeste 10 Oeste 0 1012 -0.2 45
2019-11-20 10:00:00 10.8 6 Sudoeste 13 Sudoeste 0 1012.2 0.3 63
2019-11-20 09:00:00 4.7 8 Sudoeste 10 Sudoeste 0 1012.1 0.2 82
2019-11-20 08:00:00 4.5 7 Sudoeste 13 Oeste 0 1012.2 0.1 81
2019-11-20 07:00:00 5.3 9 Sudoeste 12 Sudoeste 0 1011.9 -0.8 79
2019-11-20 06:00:00 6 9 Sudoeste 12 Sudoeste 0 1011.9 -1.2 77
2019-11-20 05:00:00 5.6 9 Sudoeste 13 Sudoeste 0 1012.1 -1.4 77
2019-11-20 04:00:00 5.8 10 Sudoeste 17 Sudoeste 0 1012.7 -1.2 76
2019-11-20 03:00:00 5 10 Sudoeste 15 Sudoeste 0 1013.1 -1 80
2019-11-20 02:00:00 5.8 10 Sudoeste 14 Oeste 0 1013.5 -1.1 79
2019-11-20 01:00:00 6.3 7 Oeste 14 Oeste 0 1013.9 -0.7 79
2019-11-20 00:00:00 7.2 10 Oeste 14 Oeste 0 1014.1 -0.5 77
2019-11-19 23:00:00 6.9 9 Oeste 12 Sudoeste 0 1014.6 -0.1 79
2019-11-19 22:00:00 7.1 7 Oeste 14 Oeste 0 1014.6 0.2 80
2019-11-19 21:00:00 7.2 10 Sudoeste 15 Oeste 0 1014.6 0.3 80
2019-11-19 20:00:00 7.9 7 Sudoeste 11 Oeste 0 1014.7 0.7 79
2019-11-19 19:00:00 8.7 3 Oeste 7 Sudoeste 0 1014.4 0.3 74
2019-11-19 18:00:00 11.8 2 Sudoeste 14 Sur 0 1014.3 0 61
2019-11-19 17:00:00 15.4 9 Sur 19 Sudeste 0 1014 -0.6 47
2019-11-19 16:00:00 16.5 9 Sur 21 Sudeste 0 1014.1 -0.9 43
2019-11-19 15:00:00 16.9 9 Sur 16 Sur 0 1014.3 -1.7 41
2019-11-19 14:00:00 17.5 5 Sudoeste 22 Norte 0 1014.6 -1.9 33
2019-11-19 13:00:00 16.8 7 Oeste 20 Norte 0 1015 -1.4 34
2019-11-19 12:00:00 14.8 13 Norte 21 Norte 0 1016 0 37
2019-11-19 11:00:00 14.1 7 Sudoeste 12 Sudoeste 0 1016.5 1 38
2019-11-19 10:00:00 10.2 4 Sudoeste 9 Sudoeste 0 1016.4 1.3 58
2019-11-19 09:00:00 5.2 4 Sudoeste 15 Oeste 0 1016 1 73
2019-11-19 08:00:00 4.4 9 Sudoeste 17 Oeste 0 1015.5 0.8 73
2019-11-19 07:00:00 4.1 10 Sudoeste 15 Sudoeste 0 1015.1 0 75
2019-11-19 06:00:00 5.2 4 Sudoeste 12 Noroeste 0 1015 0.1 70
2019-11-19 05:00:00 5.6 6 Oeste 14 Sudoeste 0 1014.7 -0.3 67
2019-11-19 04:00:00 5.9 8 Sudoeste 21 Oeste 0 1015.1 -0.1 69
2019-11-19 03:00:00 8.8 10 Noroeste 19 Oeste 0 1014.9 0.2 56
2019-11-19 02:00:00 8.2 11 Sudoeste 18 Sudoeste 0 1015 0.6 68
2019-11-19 01:00:00 9.2 7 Oeste 14 Oeste 0 1015.2 1 77
2019-11-19 00:00:00 9.1 7 Oeste 16 Norte 0 1014.7 1 77
2019-11-18 23:00:00 10.5 12 Norte 23 Noroeste 0.4 1014.4 1.4 76
2019-11-18 22:00:00 10.9 9 Oeste 17 Oeste 0 1014.2 1.9 69
2019-11-18 21:00:00 11.7 8 Oeste 15 Noroeste 0 1013.7 2 65
2019-11-18 20:00:00 12.6 3 Noroeste 11 Norte 0 1013 2 61
2019-11-18 19:00:00 12.7 3 Norte 17 Nordeste 0 1012.3 1.8 58
2019-11-18 18:00:00 13.6 11 Norte 22 Nordeste 0 1011.7 1.5 53
2019-11-18 17:00:00 14.9 10 Norte 25 Norte 0 1011 1 46
2019-11-18 16:00:00 15.2 12 Norte 32 Norte 0 1010.5 0.8 46
2019-11-18 15:00:00 13.7 13 Norte 35 Nordeste 0 1010.2 0.6 52
2019-11-18 14:00:00 14 18 Norte 35 Norte 0.4 1010 1.2 54
2019-11-18 13:00:00 14.2 23 Norte 40 Norte 0 1009.7 2 63
2019-11-18 12:00:00 14.7 16 Noroeste 36 Noroeste 0 1009.6 3 55
2019-11-18 11:00:00 11.8 17 Noroeste 32 Noroeste 0.8 1008.8 2.7 66
2019-11-18 10:00:00 11.9 11 Norte 36 Norte 0 1007.7 1.2 79
2019-11-18 09:00:00 12.1 19 Noroeste 36 Noroeste 0 1006.6 0.7 54
2019-11-18 08:00:00 12.1 23 Noroeste 38 Noroeste 0 1006.1 0.5 56
2019-11-18 07:00:00 11.6 13 Oeste 24 Oeste 0 1006.5 0.4 64
2019-11-18 06:00:00 10.1 7 Oeste 15 Sudoeste 0 1005.9 -1 82
2019-11-18 05:00:00 10.6 8 Sudoeste 15 Sudoeste 0 1005.6 -1.9 83
2019-11-18 04:00:00 10.7 9 Sudoeste 20 Oeste 0 1006.1 -2.5 84
2019-11-18 03:00:00 11.3 11 Oeste 23 Oeste 0 1006.9 -1.7 80
2019-11-18 02:00:00 11.3 11 Oeste 22 Oeste 0.8 1007.5 -1.3 89
2019-11-18 01:00:00 11.9 12 Oeste 26 Oeste 2.2 1008.6 0.1 85
2019-11-18 00:00:00 12.8 14 Oeste 24 Oeste 0.4 1008.6 -0.5 75
2019-11-17 23:00:00 13.3 8 Oeste 14 Noroeste 0 1008.8 -0.6 58
2019-11-17 22:00:00 11.7 3 Sur 9 Noroeste 0 1008.5 -0.9 65
2019-11-17 21:00:00 12.8 5 Oeste 10 Noroeste 0 1009.1 -0.3 57
2019-11-17 20:00:00 13 3 Nordeste 7 Nordeste 0 1009.4 -0.1 58
2019-11-17 19:00:00 14.1 3 Oeste 13 Oeste 0 1009.4 -0.3 48
2019-11-17 18:00:00 14.6 3 Sudoeste 13 Sudoeste 0 1009.4 -0.9 48
2019-11-17 17:00:00 16.5 7 Sur 23 Sudoeste 0 1009.5 -1.2 40
2019-11-17 16:00:00 18.5 10 Sur 26 Sur 0 1009.7 -2 35
2019-11-17 15:00:00 17.8 14 Sudoeste 27 Noroeste 0 1010.3 -2.5 39
2019-11-17 14:00:00 19.1 13 Oeste 31 Oeste 0 1010.7 -2.1 28
2019-11-17 13:00:00 17.6 10 Oeste 28 Oeste 0 1011.7 -1.1 29
2019-11-17 12:00:00 16.8 12 Oeste 29 Oeste 0 1012.8 0.1 29
2019-11-17 11:00:00 15.2 14 Oeste 29 Oeste 0 1012.8 0.2 31
2019-11-17 10:00:00 13.3 14 Oeste 29 Oeste 0 1012.8 0 34
2019-11-17 09:00:00 7.4 10 Sudoeste 19 Oeste 0 1012.7 0 54
2019-11-17 08:00:00 5.2 9 Sudoeste 14 Oeste 0 1012.6 0.2 63
2019-11-17 07:00:00 8.1 10 Oeste 16 Sudoeste 0 1012.8 0.3 51
2019-11-17 06:00:00 8.6 10 Oeste 24 Oeste 0 1012.7 0.2 49
2019-11-17 05:00:00 10.1 12 Oeste 24 Oeste 0 1012.4 -0.6 44
2019-11-17 04:00:00 10.3 13 Oeste 30 Oeste 0 1012.5 -0.7 42
2019-11-17 03:00:00 11.1 15 Oeste 40 Oeste 0 1012.5 -0.8 39
2019-11-17 02:00:00 8 10 Sudoeste 16 Sudoeste 0 1013 -0.2 54
2019-11-17 01:00:00 7.9 9 Sudoeste 16 Sudoeste 0 1013.2 0 55
2019-11-17 00:00:00 9.2 9 Sudoeste 32 Oeste 0 1013.3 0.5 50
2019-11-16 23:00:00 11.6 15 Oeste 31 Noroeste 0 1013.2 0.6 39
2019-11-16 22:00:00 10.5 12 Oeste 24 Oeste 0 1013.2 1.2 46
2019-11-16 21:00:00 6.8 13 Oeste 18 Oeste 0 1012.8 1.3 73
2019-11-16 20:00:00 7.4 6 Oeste 10 Oeste 0 1012.6 1.6 72
2019-11-16 19:00:00 8.8 6 Sudoeste 10 Sudoeste 0 1012 1.3 67
2019-11-16 18:00:00 12.4 5 Sudoeste 8 Noroeste 0 1011.5 0.9 55
2019-11-16 17:00:00 14.9 8 Norte 18 Norte 0 1011 0.5 39
2019-11-16 16:00:00 15.4 11 Norte 23 Norte 0 1010.7 0.2 37
2019-11-16 15:00:00 15.6 12 Norte 29 Noroeste 0 1010.6 -0.3 34
2019-11-16 14:00:00 15.1 16 Norte 40 Norte 0 1010.5 -0.2 38
2019-11-16 13:00:00 15.6 15 Noroeste 33 Noroeste 0 1010.5 0.5 40
2019-11-16 12:00:00 12.7 15 Noroeste 28 Noroeste 0 1010.9 2.2 45
2019-11-16 11:00:00 11.8 12 Noroeste 38 Noroeste 0 1010.7 2.2 46
2019-11-16 10:00:00 13.2 17 Noroeste 32 Noroeste 0 1010 2.7 41
2019-11-16 09:00:00 10.5 19 Noroeste 32 Oeste 0 1008.7 2.1 48
2019-11-16 08:00:00 10.8 20 Noroeste 41 Noroeste 0 1008.5 2.3 45
2019-11-16 07:00:00 10.4 17 Noroeste 31 Oeste 0 1007.3 1.5 46
2019-11-16 06:00:00 10.4 18 Noroeste 29 Noroeste 0 1006.6 1.1 46
2019-11-16 05:00:00 10.7 17 Noroeste 30 Noroeste 0 1006.2 0.6 45
2019-11-16 04:00:00 10.9 15 Noroeste 28 Oeste 0 1005.8 0.3 44
2019-11-16 03:00:00 11 14 Noroeste 30 Noroeste 0 1005.5 0.4 44
2019-11-16 02:00:00 11.4 14 Noroeste 29 Noroeste 0 1005.6 0.9 45
2019-11-16 01:00:00 9.7 12 Oeste 28 Noroeste 0 1005.5 1.2 53
2019-11-16 00:00:00 7.2 8 Oeste 21 Oeste 0 1005.1 1 65
2019-11-15 23:00:00 8.2 9 Oeste 21 Oeste 0 1004.7 1 60
2019-11-15 22:00:00 8.4 10 Oeste 19 Oeste 0 1004.3 1.1 60
2019-11-15 21:00:00 6.9 11 Sudoeste 15 Sudoeste 0 1004.1 1.5 68
2019-11-15 20:00:00 7.4 8 Oeste 12 Sudoeste 0 1003.7 1.5 68
2019-11-15 19:00:00 9.3 7 Sudoeste 11 Oeste 0 1003.2 1.4 60
2019-11-15 18:00:00 13.7 6 Oeste 21 Oeste 0 1002.6 0.8 39
2019-11-15 17:00:00 16.2 11 Noroeste 23 Noroeste 0 1002.2 0.1 31
2019-11-15 16:00:00 16.9 12 Oeste 26 Oeste 0 1001.8 -0.4 30
2019-11-15 15:00:00 17.3 13 Oeste 28 Oeste 0 1001.8 -1.1 29
2019-11-15 14:00:00 16.7 17 Oeste 36 Oeste 0 1002.1 -0.8 30
2019-11-15 13:00:00 16 18 Oeste 38 Oeste 0 1002.2 -0.5 32
2019-11-15 12:00:00 15.7 14 Oeste 35 Oeste 0 1002.9 0.4 35
2019-11-15 11:00:00 14.5 16 Oeste 37 Noroeste 0 1002.9 0.7 38
2019-11-15 10:00:00 13.1 9 Oeste 21 Oeste 0 1002.7 1.1 46
2019-11-15 09:00:00 9.7 5 Sudoeste 14 Oeste 0 1002.5 0.8 57
2019-11-15 08:00:00 7.3 4 Oeste 14 Oeste 0 1002.2 1.1 66
2019-11-15 07:00:00 7.4 9 Sudoeste 14 Sudoeste 0 1001.6 0.4 69
2019-11-15 06:00:00 8.2 5 Sudoeste 10 Sudoeste 0 1001.7 1 66
2019-11-15 05:00:00 11 9 Oeste 36 Oeste 0 1001.1 0.7 50
2019-11-15 04:00:00 11.8 17 Noroeste 26 Noroeste 0 1001.2 0.7 45
2019-11-15 03:00:00 12.2 13 Oeste 30 Oeste 0 1000.7 0 44
2019-11-15 02:00:00 12 11 Oeste 32 Oeste 0 1000.4 -0.5 46
2019-11-15 01:00:00 7.2 4 Sur 13 Sur 0 1000.5 -0.4 70
2019-11-15 00:00:00 8.6 5 Sudoeste 17 Oeste 0 1000.7 -0.2 63